Time;durP1;ratioP1;P1;durP2;ratioP2;P2;SDS_P1;SDS_P2;PMS_P1;PMS_P2;Temp;Humidity;BMP_temperature;BMP_pressure;BME280_temperature;BME280_humidity;BME280_pressure;Samples;Min_cycle;Max_cycle;Signal;HPM_P1;HPM_P2
2022/12/11 00:01:59;;;;;;;;;18.25;10.00;;;;;1.06;75.86;101008.84;5019011;28;45570;-81
2022/12/11 00:04:24;;;;;;;;;17.25;8.75;;;;;1.11;75.41;101008.88;5018860;28;45345;-81
2022/12/11 00:06:50;;;;;;;;;11.75;6.75;;;;;1.12;75.81;101008.91;5018449;28;45472;-81
2022/12/11 00:09:17;;;;;;;;;19.75;10.50;;;;;1.08;75.49;101017.41;5036372;28;46920;-81
2022/12/11 00:11:42;;;;;;;;;16.75;10.50;;;;;1.06;75.53;101011.41;5036418;28;45953;-81
2022/12/11 00:14:08;;;;;;;;;15.75;13.00;;;;;1.06;75.35;101002.84;5036806;28;45398;-81
2022/12/11 00:16:33;;;;;;;;;16.00;9.75;;;;;1.05;75.38;101001.97;5018595;28;45493;-81
2022/12/11 00:18:58;;;;;;;;;15.00;9.00;;;;;1.04;75.34;100996.81;5035911;28;64056;-81
2022/12/11 00:21:24;;;;;;;;;16.25;9.75;;;;;1.04;75.77;100999.38;5035693;28;55595;-81
2022/12/11 00:23:50;;;;;;;;;15.50;7.00;;;;;1.06;75.62;100984.88;5018689;28;45207;-81
2022/12/11 00:26:15;;;;;;;;;15.50;10.00;;;;;1.08;75.83;100984.09;5036531;28;45823;-81
2022/12/11 00:28:42;;;;;;;;;9.75;7.00;;;;;1.10;75.84;100989.25;5018306;28;46149;-81
2022/12/11 00:31:12;;;;;;;;;12.25;9.25;;;;;1.10;75.44;100974.72;5018629;28;45357;-81
2022/12/11 00:33:38;;;;;;;;;15.25;11.00;;;;;1.11;75.44;100976.41;5036478;28;45313;-81
2022/12/11 00:36:08;;;;;;;;;10.00;7.00;;;;;1.10;75.67;100973.84;5035387;28;59067;-81
2022/12/11 00:38:33;;;;;;;;;11.00;9.00;;;;;1.09;75.18;100985.78;5018104;28;46559;-81
2022/12/11 00:40:59;;;;;;;;;13.00;6.00;;;;;1.09;75.23;100975.53;5017581;28;60189;-81
2022/12/11 00:43:25;;;;;;;;;11.50;9.00;;;;;1.11;75.52;100976.41;5036292;28;45483;-81
2022/12/11 00:45:50;;;;;;;;;19.25;10.75;;;;;1.13;75.65;100973.88;5017623;28;60736;-81
2022/12/11 00:48:15;;;;;;;;;17.00;9.00;;;;;1.20;75.90;100969.72;5035815;28;53764;-81
2022/12/11 00:50:41;;;;;;;;;14.25;13.00;;;;;1.22;75.77;100966.31;5017253;28;63363;-81
2022/12/11 00:53:06;;;;;;;;;18.50;10.50;;;;;1.23;75.14;100962.06;5035895;28;45446;-81
2022/12/11 00:55:36;;;;;;;;;11.50;8.00;;;;;1.20;75.35;100962.00;5017956;28;45609;-81
2022/12/11 00:58:01;;;;;;;;;10.50;7.00;;;;;1.14;75.16;100957.66;5018038;28;45456;-81
2022/12/11 01:00:27;;;;;;;;;15.00;9.50;;;;;1.07;75.40;100955.84;5017415;28;65109;-81
2022/12/11 01:02:52;;;;;;;;;12.00;9.25;;;;;1.05;75.32;100965.22;5035552;28;53317;-81
2022/12/11 01:05:17;;;;;;;;;14.75;8.00;;;;;1.00;75.29;100966.88;5017812;28;45519;-81
2022/12/11 01:07:43;;;;;;;;;10.50;10.00;;;;;0.97;75.23;100960.00;5035094;28;67361;-81
2022/12/11 01:10:23;;;;;;;;;10.00;9.75;;;;;0.98;75.46;100951.47;5035276;28;60473;-81
2022/12/11 01:12:54;;;;;;;;;15.00;10.00;;;;;1.00;75.40;100956.59;5019788;28;45479;-81
2022/12/11 01:15:21;;;;;;;;;10.50;8.50;;;;;0.99;75.33;100954.91;5035903;28;45431;-81
2022/12/11 01:17:47;;;;;;;;;17.75;9.75;;;;;0.99;75.60;100960.03;5017751;28;46384;-81
2022/12/11 01:20:13;;;;;;;;;12.75;10.00;;;;;0.96;75.27;100950.56;5000929;28;45960;-81
2022/12/11 01:22:38;;;;;;;;;4.00;4.00;;;;;0.93;75.07;100953.13;5035742;28;45707;-81
2022/12/11 01:25:04;;;;;;;;;12.50;8.50;;;;;0.88;75.06;100947.06;5035695;28;45262;-81
2022/12/11 01:27:29;;;;;;;;;11.50;8.75;;;;;0.86;75.18;100946.19;5035431;28;46093;-81
2022/12/11 01:29:55;;;;;;;;;12.25;4.00;;;;;0.85;75.15;100950.41;5035464;28;45396;-81
2022/12/11 01:32:20;;;;;;;;;10.00;8.00;;;;;0.88;75.51;100955.59;5017134;28;58038;-81
2022/12/11 01:34:45;;;;;;;;;17.00;7.00;;;;;0.92;75.56;100953.94;5036869;28;45476;-81
2022/12/11 01:37:11;;;;;;;;;10.00;9.50;;;;;0.91;75.50;100947.97;5038074;28;66406;-81
2022/12/11 01:39:37;;;;;;;;;16.50;12.50;;;;;0.91;75.05;100962.47;5020447;28;65625;-81
2022/12/11 01:42:16;;;;;;;;;8.50;4.00;;;;;0.89;75.08;100956.44;5021227;28;45417;-81
2022/12/11 01:44:41;;;;;;;;;12.50;6.25;;;;;0.87;75.27;100965.81;5038805;28;45362;-81
2022/12/11 01:47:06;;;;;;;;;15.67;6.33;;;;;0.88;75.63;100963.28;5038747;28;46091;-81
2022/12/11 01:49:32;;;;;;;;;15.75;7.00;;;;;0.92;75.53;100961.63;5019975;28;61469;-81
2022/12/11 01:52:05;;;;;;;;;11.50;6.25;;;;;0.93;75.35;100963.38;5020980;28;45334;-81
2022/12/11 01:54:30;;;;;;;;;9.50;8.00;;;;;0.92;75.21;100966.75;5020776;28;45438;-81
2022/12/11 01:57:00;;;;;;;;;12.75;9.50;;;;;0.95;75.42;100964.25;5020300;28;64068;-81
2022/12/11 01:59:28;;;;;;;;;12.75;6.00;;;;;0.95;75.42;100971.94;5020644;28;45879;-81
2022/12/11 02:02:07;;;;;;;;;9.00;4.00;;;;;0.96;75.19;100960.84;5020592;28;45452;-81
2022/12/11 02:04:34;;;;;;;;;11.00;8.50;;;;;1.01;75.36;100959.19;5020744;28;45519;-81
2022/12/11 02:07:00;;;;;;;;;13.00;9.00;;;;;1.02;75.15;100957.50;5037256;28;48517;-81
2022/12/11 02:09:31;;;;;;;;;11.75;7.00;;;;;1.00;75.33;100952.34;5038548;28;45542;-81
2022/12/11 02:12:17;;;;;;;;;10.75;8.50;;;;;0.99;74.89;100948.06;5020598;28;45382;-81
2022/12/11 02:15:14;;;;;;;;;9.50;6.00;;;;;0.95;74.83;100954.84;5038563;28;45520;-81
2022/12/11 02:17:45;;;;;;;;;11.50;4.00;;;;;0.94;75.03;100944.56;4976067;28;47307;-81
2022/12/11 02:20:18;;;;;;;;;12.00;10.50;;;;;0.95;75.53;100944.59;4960246;28;45379;-81
2022/12/11 02:23:10;;;;;;;;;10.75;8.00;;;;;0.97;75.20;100934.38;4960501;28;45576;-81
2022/12/11 02:25:51;;;;;;;;;8.00;4.75;;;;;0.94;75.20;100942.00;4960626;28;45403;-81
2022/12/11 02:28:20;;;;;;;;;7.25;6.75;;;;;0.91;75.07;100942.84;4960349;28;46599;-80
2022/12/11 02:30:53;;;;;;;;;8.50;8.50;;;;;0.93;75.68;100950.56;4959979;28;45469;-81
2022/12/11 02:33:26;;;;;;;;;8.50;4.00;;;;;0.94;75.29;100949.69;4976645;28;45365;-81
2022/12/11 02:35:52;;;;;;;;;9.25;3.75;;;;;0.90;75.25;100935.97;4976568;28;45627;-81
2022/12/11 02:38:23;;;;;;;;;2.50;2.50;;;;;0.88;75.43;100932.53;4959610;28;66534;-81
2022/12/11 02:40:50;;;;;;;;;9.00;5.50;;;;;0.89;75.11;100934.28;4959770;28;45287;-81
2022/12/11 02:43:17;;;;;;;;;7.00;7.00;;;;;0.88;75.47;100936.81;4960466;28;45431;-81
2022/12/11 02:45:44;;;;;;;;;7.50;4.50;;;;;0.84;75.39;100930.78;4957781;28;60429;-81
2022/12/11 02:48:10;;;;;;;;;6.50;6.00;;;;;0.86;75.48;100939.34;4959624;28;58254;-81
2022/12/11 02:50:38;;;;;;;;;17.00;9.75;;;;;0.88;75.14;100919.72;4959580;28;58805;-81
2022/12/11 02:53:05;;;;;;;;;18.00;9.00;;;;;0.85;75.08;100924.78;4976418;28;45490;-81
2022/12/11 02:55:31;;;;;;;;;15.00;8.00;;;;;0.88;75.10;100913.75;5009614;28;60198;-81
2022/12/11 02:58:16;;;;;;;;;9.75;6.00;;;;;0.81;74.88;100922.19;5020061;28;46451;-81
2022/12/11 03:00:43;;;;;;;;;9.00;7.00;;;;;0.78;75.43;100917.88;5019665;28;45888;-81
2022/12/11 03:03:08;;;;;;;;;10.50;6.75;;;;;0.79;75.50;100926.44;5020068;28;45283;-81
2022/12/11 03:05:34;;;;;;;;;10.00;7.50;;;;;0.76;74.94;100922.09;5019898;28;45540;-81
2022/12/11 03:08:00;;;;;;;;;11.25;8.50;;;;;0.72;75.11;100928.03;5019054;28;65325;-81
2022/12/11 03:10:26;;;;;;;;;10.00;6.00;;;;;0.70;75.14;100927.16;5019833;28;45299;-81
2022/12/11 03:12:52;;;;;;;;;5.00;4.50;;;;;0.74;75.24;100921.22;5037142;28;61317;-81
2022/12/11 03:15:20;;;;;;;;;14.50;7.00;;;;;0.71;75.21;100923.75;5019562;28;45572;-81
2022/12/11 03:17:59;;;;;;;;;8.00;6.75;;;;;0.69;75.14;100917.75;5019790;28;45584;-81
2022/12/11 03:20:34;;;;;;;;;13.50;9.25;;;;;0.67;75.28;100915.16;5019719;28;45401;-81
2022/12/11 03:23:14;;;;;;;;;5.25;3.75;;;;;0.63;75.05;100909.97;5037669;28;45400;-81
2022/12/11 03:25:45;;;;;;;;;14.00;6.50;;;;;0.62;75.76;100905.69;5037521;28;45277;-81
2022/12/11 03:28:15;;;;;;;;;9.00;6.00;;;;;0.63;75.34;100909.97;5037409;28;45448;-81
2022/12/11 03:30:42;;;;;;;;;11.50;9.00;;;;;0.65;75.70;100905.72;5019153;28;45977;-81
2022/12/11 03:33:10;;;;;;;;;11.25;6.00;;;;;0.66;75.36;100910.00;5018928;28;56731;-81
2022/12/11 03:35:42;;;;;;;;;10.00;6.00;;;;;0.65;75.42;100903.16;5019523;28;45657;-81
2022/12/11 03:38:11;;;;;;;;;9.25;7.00;;;;;0.64;75.49;100899.75;5037241;28;45683;-81
2022/12/11 03:40:37;;;;;;;;;6.25;6.25;;;;;0.63;75.41;100913.38;5019136;28;45327;-81
2022/12/11 03:43:04;;;;;;;;;6.75;6.25;;;;;0.61;74.99;100898.84;5037417;28;45423;-81
2022/12/11 03:45:29;;;;;;;;;6.75;4.00;;;;;0.57;75.50;100905.59;5002082;28;45531;-81
2022/12/11 03:47:57;;;;;;;;;8.25;1.50;;;;;0.55;75.57;100903.03;5019108;28;46188;-81
2022/12/11 03:50:23;;;;;;;;;11.00;6.00;;;;;0.57;75.83;100903.03;5019184;28;45532;-81
2022/12/11 03:52:49;;;;;;;;;8.00;5.50;;;;;0.62;75.48;100905.69;5019167;28;45462;-81
2022/12/11 03:55:17;;;;;;;;;6.75;4.00;;;;;0.58;75.04;100907.34;5019070;28;45555;-81
2022/12/11 03:57:43;;;;;;;;;8.00;5.50;;;;;0.56;75.53;100909.03;5018069;28;46411;-81
2022/12/11 04:00:12;;;;;;;;;8.50;2.75;;;;;0.51;74.94;100913.22;5018889;28;45318;-81
2022/12/11 04:02:38;;;;;;;;;5.50;4.00;;;;;0.49;75.43;100914.91;5035646;28;45294;-81
2022/12/11 04:05:05;;;;;;;;;9.00;5.50;;;;;0.48;75.13;100908.03;5019085;28;45317;-81
2022/12/11 04:07:31;;;;;;;;;8.50;5.50;;;;;0.46;75.17;100904.59;5002192;28;48587;-81
2022/12/11 04:09:56;;;;;;;;;8.50;6.00;;;;;0.43;75.39;100904.53;5018824;28;45431;-81
2022/12/11 04:12:21;;;;;;;;;9.25;6.75;;;;;0.43;75.19;100907.97;5035072;28;45396;-81
2022/12/11 04:15:02;;;;;;;;;8.75;5.00;;;;;0.44;75.22;100902.00;5018225;28;61695;-81
2022/12/11 04:26:07;;;;;;;;;12.25;4.50;;;;;0.48;75.90;100887.53;5036656;28;45352;-81
2022/12/11 04:28:34;;;;;;;;;13.50;6.25;;;;;0.46;75.48;100895.19;5034552;28;47156;-81
2022/12/11 04:30:59;;;;;;;;;11.50;6.00;;;;;0.42;75.74;100897.72;5036361;28;45411;-81
2022/12/11 04:33:25;;;;;;;;;8.25;4.00;;;;;0.37;75.27;100895.94;5035894;28;57189;-81
2022/12/11 04:35:50;;;;;;;;;7.50;4.00;;;;;0.36;75.63;100885.66;5036355;28;45393;-81
2022/12/11 04:38:16;;;;;;;;;7.50;6.50;;;;;0.34;75.29;100879.66;5035440;28;69048;-81
2022/12/11 04:40:41;;;;;;;;;8.50;3.75;;;;;0.30;75.20;100878.75;5035739;28;53987;-81
2022/12/11 04:43:06;;;;;;;;;10.00;8.00;;;;;0.32;75.53;100871.97;5035552;28;58778;-81
2022/12/11 04:45:32;;;;;;;;;7.50;3.75;;;;;0.31;75.36;100867.66;5035607;28;57950;-81
2022/12/11 04:47:58;;;;;;;;;7.50;4.00;;;;;0.29;75.26;100868.47;5001035;28;66629;-81
2022/12/11 04:50:24;;;;;;;;;6.00;3.00;;;;;0.26;75.11;100879.56;5018457;28;45937;-81
2022/12/11 04:52:49;;;;;;;;;4.00;3.25;;;;;0.26;75.16;100866.75;5018342;28;45497;-81
2022/12/11 04:55:15;;;;;;;;;4.50;4.00;;;;;0.27;75.47;100880.41;5018054;28;45438;-81
2022/12/11 04:57:40;;;;;;;;;5.75;3.25;;;;;0.29;75.60;100871.03;5017410;28;57084;-81
2022/12/11 05:00:08;;;;;;;;;6.50;3.25;;;;;0.33;75.32;100875.38;5017960;28;45381;-81
2022/12/11 05:02:35;;;;;;;;;4.75;3.25;;;;;0.33;75.04;100876.22;5036020;28;45417;-81
2022/12/11 05:05:02;;;;;;;;;3.00;3.00;;;;;0.32;74.93;100874.50;5018231;28;45460;-81
2022/12/11 05:07:27;;;;;;;;;6.25;4.00;;;;;0.29;74.97;100868.47;5035725;28;46786;-81
2022/12/11 05:09:52;;;;;;;;;7.75;3.75;;;;;0.28;75.47;100862.50;5034811;28;45412;-81
2022/12/11 05:12:18;;;;;;;;;6.00;4.00;;;;;0.31;75.22;100864.25;5035488;28;45420;-81
2022/12/11 05:14:43;;;;;;;;;5.50;5.50;;;;;0.28;74.93;100864.19;5035258;28;54879;-81
2022/12/11 05:17:08;;;;;;;;;5.50;3.75;;;;;0.25;75.33;100865.00;5017036;28;68929;-81
2022/12/11 05:19:34;;;;;;;;;5.50;5.00;;;;;0.27;75.39;100860.78;5035059;28;65255;-80
2022/12/11 05:21:59;;;;;;;;;9.25;6.75;;;;;0.29;75.43;100865.94;5035361;28;55366;-80
2022/12/11 05:24:24;;;;;;;;;7.75;3.00;;;;;0.31;75.26;100854.00;5035274;28;61114;-80
2022/12/11 05:26:50;;;;;;;;;3.50;3.50;;;;;0.33;75.00;100849.75;5034739;28;58446;-80
2022/12/11 05:29:15;;;;;;;;;5.00;3.25;;;;;0.34;75.37;100854.06;5034663;28;65815;-80
2022/12/11 05:31:41;;;;;;;;;12.00;4.50;;;;;0.33;74.94;100849.75;5035550;28;45456;-80
2022/12/11 05:34:06;;;;;;;;;12.00;7.00;;;;;0.32;74.73;100843.78;5035581;28;45290;-80
2022/12/11 05:36:32;;;;;;;;;9.75;5.50;;;;;0.35;75.21;100841.28;5034671;28;66613;-80
2022/12/11 05:38:59;;;;;;;;;3.75;3.00;;;;;0.42;75.07;100842.22;5035422;28;45789;-80
2022/12/11 05:41:26;;;;;;;;;5.50;4.00;;;;;0.45;74.82;100856.78;5024933;28;45477;-80
2022/12/11 05:43:51;;;;;;;;;10.50;6.00;;;;;0.46;74.88;100853.38;5015683;28;45345;-80
2022/12/11 05:46:25;;;;;;;;;4.00;4.00;;;;;0.49;75.28;100849.16;5024526;28;45558;-80
2022/12/11 05:48:53;;;;;;;;;7.00;4.75;;;;;0.51;74.97;100854.31;5035165;28;45907;-80
2022/12/11 05:51:19;;;;;;;;;3.25;3.25;;;;;0.50;74.85;100855.13;5017531;28;45364;-80
2022/12/11 05:53:46;;;;;;;;;10.25;5.00;;;;;0.49;74.77;100851.72;5017046;28;45435;-80
2022/12/11 05:56:13;;;;;;;;;5.00;4.00;;;;;0.51;74.63;100846.63;5017353;28;46242;-79
2022/12/11 05:58:40;;;;;;;;;8.50;4.00;;;;;0.51;74.56;100850.03;5033740;28;46129;-80
2022/12/11 06:01:13;;;;;;;;;5.00;5.00;;;;;0.45;74.04;100856.78;5035518;28;45508;-80
2022/12/11 06:03:39;;;;;;;;;10.75;5.00;;;;;0.39;74.38;100855.00;5035265;28;45242;-80
2022/12/11 06:06:05;;;;;;;;;5.00;4.00;;;;;0.36;74.24;100855.78;5017161;28;46396;-80
2022/12/11 06:08:32;;;;;;;;;6.00;4.00;;;;;0.29;74.55;100850.56;5034598;28;45934;-80
2022/12/11 06:10:57;;;;;;;;;4.25;3.25;;;;;0.23;74.77;100851.34;5035162;28;45392;-81
2022/12/11 06:13:23;;;;;;;;;6.50;4.00;;;;;0.24;75.12;100842.78;5035153;28;45386;-80
2022/12/11 06:15:48;;;;;;;;;9.25;4.50;;;;;0.25;75.06;100841.97;5033466;28;48139;-79
2022/12/11 06:18:13;;;;;;;;;6.75;2.00;;;;;0.24;74.63;100842.78;5034479;28;56083;-80
2022/12/11 06:20:39;;;;;;;;;6.50;6.00;;;;;0.17;74.58;100835.88;5017957;28;59072;-80
2022/12/11 06:23:04;;;;;;;;;10.25;5.00;;;;;0.11;74.26;100840.91;5038002;28;45425;-80
2022/12/11 06:25:30;;;;;;;;;10.00;5.50;;;;;0.06;74.88;100840.84;5038197;28;45430;-80
2022/12/11 06:27:55;;;;;;;;;10.75;4.00;;;;;0.06;74.98;100843.41;5020327;28;45339;-80
2022/12/11 06:30:21;;;;;;;;;7.00;6.25;;;;;0.09;75.21;100832.34;5038365;28;45727;-80
2022/12/11 06:32:46;;;;;;;;;10.00;8.00;;;;;0.11;75.62;100839.22;5037718;28;57346;-80
2022/12/11 06:35:12;;;;;;;;;7.50;6.50;;;;;0.16;75.13;100831.59;5038227;28;46576;-80
2022/12/11 06:37:39;;;;;;;;;16.50;7.00;;;;;0.15;75.64;100833.31;5037922;28;45501;-80
2022/12/11 06:40:05;;;;;;;;;7.50;5.50;;;;;0.13;75.18;100829.84;5020503;28;45462;-80
2022/12/11 06:42:31;;;;;;;;;10.00;7.00;;;;;0.11;75.09;100826.41;5020117;28;45415;-80
2022/12/11 06:44:58;;;;;;;;;9.75;5.50;;;;;0.09;75.62;100827.22;5020175;28;46306;-80
2022/12/11 06:47:28;;;;;;;;;11.00;6.00;;;;;0.09;75.55;100815.28;5037906;28;45330;-80
2022/12/11 06:49:54;;;;;;;;;12.00;6.75;;;;;0.11;75.63;100828.09;5037978;28;45288;-80
2022/12/11 06:52:20;;;;;;;;;3.00;3.00;;;;;0.10;75.34;100816.16;5019913;28;45561;-80
2022/12/11 06:54:46;;;;;;;;;6.00;6.00;;;;;0.09;75.27;100820.38;5037567;28;45675;-80
2022/12/11 06:57:11;;;;;;;;;6.25;4.00;;;;;0.08;75.16;100825.50;5037318;28;60582;-80
2022/12/11 06:59:36;;;;;;;;;10.00;3.50;;;;;0.06;75.47;100816.94;5037272;28;59063;-80
2022/12/11 07:02:02;;;;;;;;;9.00;4.00;;;;;0.03;75.38;100817.75;5020003;28;45364;-80
2022/12/11 07:04:29;;;;;;;;;11.75;8.50;;;;;0.02;75.39;100823.72;5037552;28;46323;-80
2022/12/11 07:06:54;;;;;;;;;9.00;4.00;;;;;-0.01;75.33;100823.66;5019470;28;45569;-80
2022/12/11 07:09:21;;;;;;;;;8.00;4.50;;;;;0.00;75.79;100827.97;5037664;28;45269;-80
2022/12/11 07:11:49;;;;;;;;;11.50;6.50;;;;;0.01;75.52;100828.81;5020187;28;45366;-80
2022/12/11 07:14:14;;;;;;;;;16.50;6.75;;;;;0.00;76.01;100825.41;5003000;28;48469;-80
2022/12/11 07:16:39;;;;;;;;;6.50;5.00;;;;;0.01;75.55;100828.81;5019140;28;63730;-80
2022/12/11 07:19:05;;;;;;;;;19.00;7.00;;;;;-0.02;75.31;100830.47;5019720;28;45379;-80
2022/12/11 07:21:30;;;;;;;;;7.75;6.25;;;;;0.00;75.90;100830.50;5037390;28;45719;-80
2022/12/11 07:23:56;;;;;;;;;11.00;8.25;;;;;0.07;75.66;100828.88;5037316;28;46316;-80
2022/12/11 07:26:22;;;;;;;;;12.00;6.00;;;;;0.14;75.70;100831.56;5035989;28;45342;-80
2022/12/11 07:28:47;;;;;;;;;12.50;9.25;;;;;0.22;75.59;100843.63;5036638;28;63075;-80
2022/12/11 07:31:18;;;;;;;;;14.50;9.00;;;;;0.23;75.59;100846.22;5019271;28;45418;-80
2022/12/11 07:33:44;;;;;;;;;17.50;12.75;;;;;0.27;75.59;100845.41;5036679;28;46256;-80
2022/12/11 07:36:11;;;;;;;;;12.75;6.75;;;;;0.27;75.27;100847.13;5036555;28;50752;-80
2022/12/11 07:38:37;;;;;;;;;8.00;7.50;;;;;0.29;75.40;100832.63;5037180;28;45396;-80
2022/12/11 07:41:04;;;;;;;;;12.25;7.50;;;;;0.29;75.28;100832.63;5037276;28;45389;-80
2022/12/11 07:43:29;;;;;;;;;11.00;6.75;;;;;0.27;75.02;100832.63;5036887;28;45436;-80
2022/12/11 07:46:03;;;;;;;;;10.00;7.75;;;;;0.28;75.01;100833.47;5036866;28;45337;-80
2022/12/11 07:48:28;;;;;;;;;10.50;10.25;;;;;0.25;74.92;100841.97;5037273;28;45418;-80
2022/12/11 07:50:53;;;;;;;;;13.00;8.50;;;;;0.17;74.61;100849.53;5036610;28;45401;-80
2022/12/11 07:53:19;;;;;;;;;15.50;11.50;;;;;0.13;74.59;100841.78;5018666;28;56310;-80
2022/12/11 07:55:44;;;;;;;;;9.00;6.25;;;;;0.12;75.06;100838.38;5036198;28;58516;-80
2022/12/11 07:58:09;;;;;;;;;18.75;9.50;;;;;0.10;74.66;100836.63;5036295;28;60221;-80
2022/12/11 08:00:35;;;;;;;;;12.75;9.50;;;;;0.05;74.58;100833.13;5019185;28;45425;-80
2022/12/11 08:03:00;;;;;;;;;12.50;10.00;;;;;0.04;74.74;100849.31;5036603;28;47433;-80
2022/12/11 08:05:25;;;;;;;;;23.75;12.25;;;;;0.07;74.76;100834.88;5018000;28;63029;-80
2022/12/11 08:07:51;;;;;;;;;10.50;9.00;;;;;0.08;74.70;100846.84;5036016;28;61621;-78
2022/12/11 08:10:16;;;;;;;;;13.50;12.00;;;;;0.06;74.16;100847.66;5018622;28;56334;-78
2022/12/11 08:12:41;;;;;;;;;13.50;10.00;;;;;0.00;74.28;100838.19;5001893;28;47378;-79
2022/12/11 08:15:08;;;;;;;;;14.00;9.50;;;;;0.02;74.20;100840.75;5036020;28;60522;-79
2022/12/11 08:17:33;;;;;;;;;15.75;8.00;;;;;0.03;74.19;100839.94;5019010;28;45355;-78
2022/12/11 08:19:58;;;;;;;;;21.00;11.50;;;;;0.03;74.67;100834.81;5018210;28;45391;-79
2022/12/11 08:22:24;;;;;;;;;14.00;10.50;;;;;0.03;74.25;100839.94;5035551;28;66515;-79
2022/12/11 08:24:50;;;;;;;;;16.50;10.00;;;;;0.05;74.46;100848.50;5036444;28;45288;-79
2022/12/11 08:27:15;;;;;;;;;16.75;9.75;;;;;0.08;74.62;100851.09;5036633;28;45524;-78
2022/12/11 08:29:40;;;;;;;;;16.00;14.50;;;;;0.11;74.55;100853.69;5035690;28;59971;-79
2022/12/11 08:32:06;;;;;;;;;13.75;9.00;;;;;0.16;74.89;100847.81;5036169;28;45376;-78
2022/12/11 08:34:32;;;;;;;;;23.75;16.25;;;;;0.23;74.63;100855.59;5035897;28;45397;-78
2022/12/11 08:36:57;;;;;;;;;13.25;12.00;;;;;0.19;73.75;100845.31;5035796;28;55581;-78
2022/12/11 08:39:24;;;;;;;;;19.25;15.75;;;;;0.16;73.76;100849.50;5036169;28;45590;-79
2022/12/11 08:41:49;;;;;;;;;24.00;14.00;;;;;0.12;73.72;100850.31;5035860;28;46624;-78
2022/12/11 08:44:14;;;;;;;;;18.50;14.00;;;;;0.09;73.94;100848.53;5017337;28;63826;-79
2022/12/11 08:46:40;;;;;;;;;21.75;13.50;;;;;0.08;73.72;100841.72;5035452;28;59562;-78
2022/12/11 08:49:05;;;;;;;;;12.75;9.00;;;;;0.11;73.64;100843.44;5035458;28;52359;-78
2022/12/11 08:51:42;;;;;;;;;21.25;12.75;;;;;0.14;73.92;100840.94;5035910;28;46450;-78
2022/12/11 08:54:08;;;;;;;;;16.00;11.75;;;;;0.19;73.78;100847.00;5018983;28;45563;-78
2022/12/11 08:56:34;;;;;;;;;31.75;14.50;;;;;0.27;74.33;100850.53;5035156;28;65071;-78
2022/12/11 08:59:00;;;;;;;;;16.25;12.00;;;;;0.33;73.92;100848.06;5018432;28;45397;-78
2022/12/11 09:01:26;;;;;;;;;22.00;14.00;;;;;0.38;73.78;100840.44;5016534;28;45638;-78
2022/12/11 09:03:53;;;;;;;;;23.00;16.25;;;;;0.43;73.42;100840.50;5000957;28;46096;-78
2022/12/11 09:06:21;;;;;;;;;16.00;8.50;;;;;0.41;72.99;100832.81;5035597;28;45423;-79
2022/12/11 09:08:47;;;;;;;;;17.75;12.50;;;;;0.46;73.40;100841.41;5035430;28;45292;-79
2022/12/11 09:11:16;;;;;;;;;24.00;12.75;;;;;0.49;72.83;100840.63;5035373;28;45522;-79
2022/12/11 09:13:42;;;;;;;;;29.00;18.50;;;;;0.44;72.64;100837.97;5032496;28;45514;-79
2022/12/11 09:16:10;;;;;;;;;18.25;13.50;;;;;0.40;72.78;100836.22;5034845;28;45384;-78
2022/12/11 09:18:36;;;;;;;;;24.00;15.75;;;;;0.41;72.73;100842.19;5017373;28;45486;-79
2022/12/11 09:21:13;;;;;;;;;22.25;16.75;;;;;0.45;73.11;100839.72;5035354;28;45527;-79
2022/12/11 09:23:39;;;;;;;;;26.75;14.75;;;;;0.44;72.79;100839.69;5035058;28;45353;-78
2022/12/11 09:26:05;;;;;;;;;14.50;6.25;;;;;0.43;72.57;100837.94;5035138;28;45373;-79
2022/12/11 09:28:31;;;;;;;;;22.25;15.00;;;;;0.44;72.49;100840.53;5035693;28;45428;-78
2022/12/11 09:30:56;;;;;;;;;25.75;16.50;;;;;0.42;72.80;100843.94;5035125;28;45333;-78
2022/12/11 09:33:22;;;;;;;;;35.25;23.00;;;;;0.43;72.80;100854.19;5034658;28;45446;-79
2022/12/11 09:35:57;;;;;;;;;21.00;14.00;;;;;0.43;72.66;100859.31;5017101;28;45386;-82
2022/12/11 09:38:22;;;;;;;;;16.25;13.00;;;;;0.36;72.23;100849.81;5035379;28;45313;-79
2022/12/11 09:40:48;;;;;;;;;18.75;13.00;;;;;0.28;72.25;100852.28;5032323;28;62571;-79
2022/12/11 09:43:31;;;;;;;;;24.00;15.75;;;;;0.25;72.89;100859.03;5034170;28;64385;-79
2022/12/11 09:45:59;;;;;;;;;15.50;14.00;;;;;0.28;72.64;100854.84;5034258;28;45336;-79
2022/12/11 09:48:25;;;;;;;;;27.00;15.00;;;;;0.39;72.85;100855.00;5016993;28;45386;-79
2022/12/11 09:50:53;;;;;;;;;21.25;18.25;;;;;0.47;72.74;100855.97;5034940;28;47266;-82
2022/12/11 09:53:35;;;;;;;;;21.50;14.50;;;;;0.56;72.64;100856.09;5016785;28;45477;-80
2022/12/11 09:56:24;;;;;;;;;20.50;14.50;;;;;0.65;72.45;100857.91;5023964;28;45334;-82
2022/12/11 09:59:17;;;;;;;;;9.75;1.00;;;;;0.75;72.65;100870.00;5001284;28;45494;-79
2022/12/11 10:02:06;;;;;;;;;25.00;17.50;;;;;0.80;72.45;100871.75;5013175;28;47244;-80
2022/12/11 10:04:53;;;;;;;;;24.75;14.50;;;;;0.92;72.17;100877.06;4992196;28;45929;-81
2022/12/11 10:07:34;;;;;;;;;11.75;11.75;;;;;0.95;72.02;100871.97;5031629;28;45350;-81
2022/12/11 10:10:02;;;;;;;;;25.25;13.75;;;;;0.99;71.76;100873.72;5038311;28;45208;-79
2022/12/11 10:12:56;;;;;;;;;18.00;14.00;;;;;1.01;71.55;100874.59;5020525;28;46305;-79
2022/12/11 10:15:27;;;;;;;;;17.75;13.25;;;;;0.94;71.37;100868.53;5038071;28;45911;-80
2022/12/11 10:17:56;;;;;;;;;15.75;13.00;;;;;0.92;71.50;100872.78;5026515;28;45228;-79
2022/12/11 10:20:30;;;;;;;;;15.75;14.50;;;;;0.90;71.21;100861.66;5015181;28;45380;-79
2022/12/11 10:22:57;;;;;;;;;27.25;17.25;;;;;0.87;71.26;100865.88;5020437;28;46398;-78
2022/12/11 10:25:35;;;;;;;;;17.50;12.25;;;;;0.88;71.08;100855.66;5019637;28;61025;-79
2022/12/11 10:28:15;;;;;;;;;20.75;16.25;;;;;1.00;70.97;100849.81;5038154;28;45306;-80
2022/12/11 10:30:53;;;;;;;;;18.75;9.25;;;;;1.11;70.61;100848.22;5020194;28;45452;-81
2022/12/11 10:33:37;;;;;;;;;24.75;16.75;;;;;1.10;70.26;100843.94;5020042;28;45568;-77
2022/12/11 10:36:04;;;;;;;;;23.50;14.00;;;;;1.22;70.25;100837.25;5020238;28;45943;-79
2022/12/11 10:38:31;;;;;;;;;23.50;16.00;;;;;1.44;70.56;100841.75;5020273;28;45440;-80
2022/12/11 10:41:09;;;;;;;;;16.75;13.00;;;;;1.62;70.61;100835.09;5037613;28;45526;-80
2022/12/11 10:43:42;;;;;;;;;22.00;15.25;;;;;1.87;69.94;100834.44;5019863;28;45480;-80
2022/12/11 10:46:28;;;;;;;;;15.00;10.50;;;;;2.05;69.90;100823.47;5037891;28;45451;-80
2022/12/11 10:48:56;;;;;;;;;15.50;12.50;;;;;2.32;69.87;100825.38;5037450;28;45415;-78
2022/12/11 10:51:28;;;;;;;;;23.25;13.00;;;;;2.69;68.69;100822.13;5020088;28;45374;-80
2022/12/11 10:53:56;;;;;;;;;17.50;13.00;;;;;2.86;68.02;100814.47;5019423;28;47882;-81
2022/12/11 10:56:26;;;;;;;;;19.25;13.50;;;;;2.90;67.40;100819.66;5003412;28;46427;-80
2022/12/11 10:58:52;;;;;;;;;26.50;14.00;;;;;2.86;66.38;100825.66;5037505;28;45449;-80
2022/12/11 11:01:23;;;;;;;;;25.75;18.50;;;;;2.79;66.41;100820.47;5037863;28;45418;-80
2022/12/11 11:04:13;;;;;;;;;16.00;12.00;;;;;2.74;66.72;100810.16;5037578;28;47139;-80
2022/12/11 11:06:39;;;;;;;;;18.00;12.75;;;;;3.10;67.15;100806.88;5018712;28;45437;-80
2022/12/11 11:09:28;;;;;;;;;20.00;17.75;;;;;3.59;65.77;100807.81;5019198;28;56554;-80
2022/12/11 11:11:53;;;;;;;;;16.50;11.25;;;;;3.81;65.27;100803.53;5037538;28;45479;-81
2022/12/11 11:14:21;;;;;;;;;17.25;14.50;;;;;4.13;64.93;100797.50;5036514;28;63255;-80
2022/12/11 11:16:48;;;;;;;;;12.75;12.75;;;;;4.12;63.90;100791.47;5037525;28;45230;-80
2022/12/11 11:19:21;;;;;;;;;23.50;12.25;;;;;4.24;64.46;100785.47;5019730;28;45447;-80
2022/12/11 11:21:57;;;;;;;;;17.50;13.50;;;;;5.49;63.62;100783.13;5037506;28;45309;-80
2022/12/11 11:24:34;;;;;;;;;17.50;12.50;;;;;6.46;60.36;100786.59;5019645;28;46636;-80
2022/12/11 11:27:00;;;;;;;;;16.25;10.50;;;;;6.83;58.79;100787.00;5019716;28;45303;-80
2022/12/11 11:29:32;;;;;;;;;14.75;10.25;;;;;7.28;59.55;100783.81;5019338;28;45446;-80
2022/12/11 11:32:13;;;;;;;;;16.50;10.75;;;;;7.91;56.14;100785.41;5037364;28;45267;-80
2022/12/11 11:34:39;;;;;;;;;13.75;11.00;;;;;8.60;53.23;100793.69;5019217;28;46109;-80
2022/12/11 11:37:04;;;;;;;;;17.00;10.75;;;;;8.10;53.46;100781.63;5036266;28;67945;-81
2022/12/11 11:39:36;;;;;;;;;20.00;13.75;;;;;7.74;54.03;100788.28;5037301;28;45553;-80